Time;durP1;ratioP1;P1;durP2;ratioP2;P2;SDS_P1;SDS_P2;PMS_P1;PMS_P2;Temp;Humidity;BMP_temperature;BMP_pressure;BME280_temperature;BME280_humidity;BME280_pressure;Samples;Min_cycle;Max_cycle;Signal;HPM_P1;HPM_P2
2023/11/05 00:02:20;;;;;;;14.02;2.38;;;;;;;12.26;100.00;97035.94;5258543;28;20016;-72
2023/11/05 00:04:51;;;;;;;13.50;1.95;;;;;;;12.21;100.00;97041.31;5251437;28;20033;-72
2023/11/05 00:07:21;;;;;;;11.40;2.22;;;;;;;12.07;100.00;97032.97;5254649;28;20016;-72
2023/11/05 00:09:52;;;;;;;17.55;2.65;;;;;;;12.04;100.00;97022.75;5250852;28;20039;-72
2023/11/05 00:12:22;;;;;;;15.25;2.28;;;;;;;11.92;100.00;97024.91;5253371;28;20020;-72
2023/11/05 00:14:53;;;;;;;17.92;2.85;;;;;;;11.96;100.00;97022.50;5254160;28;20107;-72
2023/11/05 00:17:24;;;;;;;19.55;2.05;;;;;;;11.71;100.00;97012.53;5252487;28;20473;-72
2023/11/05 00:19:54;;;;;;;15.07;1.83;;;;;;;11.81;100.00;97018.69;5249693;28;20040;-72
2023/11/05 00:22:25;;;;;;;15.95;2.58;;;;;;;11.74;100.00;97012.78;5256863;28;20016;-72
2023/11/05 00:24:55;;;;;;;18.35;2.95;;;;;;;11.82;100.00;97000.75;5249800;28;20118;-72
2023/11/05 00:27:26;;;;;;;14.68;2.17;;;;;;;11.65;100.00;97004.47;5256671;28;20474;-72
2023/11/05 00:29:57;;;;;;;22.35;2.17;;;;;;;11.46;100.00;96997.19;5256183;28;20016;-72
2023/11/05 00:32:27;;;;;;;15.45;2.50;;;;;;;11.50;100.00;96990.22;5260161;28;20405;-73
2023/11/05 00:34:58;;;;;;;16.90;2.03;;;;;;;11.62;100.00;96993.44;5254561;28;20039;-72
2023/11/05 00:37:28;;;;;;;11.23;1.98;;;;;;;11.49;100.00;96986.69;5262332;28;20028;-72
2023/11/05 00:39:59;;;;;;;15.27;2.75;;;;;;;11.49;100.00;96984.00;5249061;28;20052;-72
2023/11/05 00:42:29;;;;;;;8.60;1.98;;;;;;;11.49;100.00;96977.84;5254922;28;20031;-72
2023/11/05 00:45:00;;;;;;;18.70;2.80;;;;;;;11.56;100.00;96970.34;5247009;28;20033;-72
2023/11/05 00:47:30;;;;;;;12.98;2.35;;;;;;;11.49;100.00;96973.28;5260901;28;20031;-72
2023/11/05 00:50:01;;;;;;;10.13;2.17;;;;;;;11.57;100.00;96971.97;5257803;28;20028;-72
2023/11/05 00:52:31;;;;;;;13.55;1.90;;;;;;;11.59;100.00;96972.47;5249677;28;20028;-72
2023/11/05 00:55:02;;;;;;;12.35;1.85;;;;;;;11.58;100.00;96965.50;5255546;28;20057;-72
2023/11/05 00:57:32;;;;;;;10.98;2.03;;;;;;;11.48;100.00;96960.13;5254672;28;20039;-72
2023/11/05 01:00:03;;;;;;;14.90;2.38;;;;;;;11.48;100.00;96966.31;5253211;28;20032;-72
2023/11/05 01:02:35;;;;;;;14.85;2.33;;;;;;;11.46;100.00;96965.78;5247679;28;20036;-72
2023/11/05 01:05:07;;;;;;;11.70;2.45;;;;;;;11.53;100.00;96971.69;5251271;28;20036;-72
2023/11/05 01:07:37;;;;;;;13.23;1.95;;;;;;;11.43;100.00;96968.97;5263454;28;20084;-72
2023/11/05 01:10:08;;;;;;;15.40;2.55;;;;;;;11.41;100.00;96960.41;5251358;28;20083;-72
2023/11/05 01:12:39;;;;;;;17.77;2.63;;;;;;;11.47;100.00;96963.91;5258310;28;20035;-72
2023/11/05 01:15:09;;;;;;;15.68;2.40;;;;;;;11.50;100.00;96972.22;5254017;28;20469;-72
2023/11/05 01:17:40;;;;;;;11.57;1.80;;;;;;;11.53;100.00;96969.00;5264580;28;20504;-72
2023/11/05 01:20:10;;;;;;;16.55;2.10;;;;;;;11.60;100.00;96964.19;5267445;28;20526;-72
2023/11/05 01:22:41;;;;;;;19.38;1.95;;;;;;;11.47;100.00;96956.66;5253058;28;20032;-72
2023/11/05 01:25:11;;;;;;;15.63;2.33;;;;;;;11.40;100.00;96948.06;5264040;28;20028;-72
2023/11/05 01:27:42;;;;;;;18.60;4.05;;;;;;;11.46;100.00;96956.91;5266846;28;20469;-72
2023/11/05 01:30:13;;;;;;;6.43;1.52;;;;;;;11.52;100.00;96956.66;5259232;28;20039;-72
2023/11/05 01:32:43;;;;;;;15.95;3.42;;;;;;;11.63;100.00;96952.91;5209482;28;1614529;-72
2023/11/05 01:35:14;;;;;;;7.38;1.50;;;;;;;11.57;100.00;96955.84;5252919;28;20035;-72
2023/11/05 01:37:44;;;;;;;16.33;2.83;;;;;;;11.48;100.00;96960.94;5268028;28;20032;-72
2023/11/05 01:40:15;;;;;;;8.45;1.30;;;;;;;11.57;100.00;96955.84;5271211;28;20372;-72
2023/11/05 01:42:49;;;;;;;10.88;1.52;;;;;;;11.61;100.00;96957.75;5258652;28;20024;-72
2023/11/05 01:45:20;;;;;;;8.90;1.58;;;;;;;11.56;100.00;96956.94;5262309;28;20055;-72
2023/11/05 01:47:52;;;;;;;16.77;2.08;;;;;;;11.74;100.00;96960.94;5266861;28;20035;-72
2023/11/05 01:50:23;;;;;;;12.32;1.58;;;;;;;11.67;100.00;96947.81;5251271;28;20051;-72
2023/11/05 01:52:55;;;;;;;9.38;1.30;;;;;;;11.53;100.00;96952.09;5261651;28;20039;-72
2023/11/05 01:55:26;;;;;;;9.20;1.35;;;;;;;11.62;100.00;96947.81;5254874;28;20038;-72
2023/11/05 01:57:56;;;;;;;8.35;1.67;;;;;;;11.64;100.00;96949.13;5264394;28;20408;-72
2023/11/05 02:00:27;;;;;;;5.95;1.25;;;;;;;11.75;100.00;96957.22;5264373;28;20031;-72
2023/11/05 02:02:57;;;;;;;10.63;1.50;;;;;;;11.60;100.00;96952.66;5257879;28;20033;-72
2023/11/05 02:05:28;;;;;;;9.43;1.42;;;;;;;11.58;100.00;96950.22;5256600;28;20405;-72
2023/11/05 02:08:00;;;;;;;9.18;2.10;;;;;;;11.61;100.00;96952.38;5264252;28;20462;-72
2023/11/05 02:10:31;;;;;;;6.63;1.48;;;;;;;11.49;100.00;96945.63;5252896;28;20074;-72
2023/11/05 02:13:03;;;;;;;9.32;1.42;;;;;;;11.61;100.00;96941.63;5260231;28;20112;-72
2023/11/05 02:15:33;;;;;;;8.60;1.30;;;;;;;11.79;100.00;96950.22;5256024;28;20028;-72
2023/11/05 02:18:04;;;;;;;9.32;1.63;;;;;;;11.71;100.00;96946.19;5257338;28;20031;-72
2023/11/05 02:20:35;;;;;;;7.43;1.58;;;;;;;11.64;100.00;96943.75;5266646;28;20027;-72
2023/11/05 02:23:07;;;;;;;12.95;1.98;;;;;;;11.71;100.00;96943.50;5256644;28;20061;-72
2023/11/05 02:25:37;;;;;;;11.10;2.08;;;;;;;11.72;100.00;96937.06;5258890;28;20035;-72
2023/11/05 02:28:08;;;;;;;9.95;1.67;;;;;;;11.63;100.00;96936.78;5259891;28;20028;-72
2023/11/05 02:30:38;;;;;;;9.63;1.50;;;;;;;11.74;100.00;96936.78;5264735;28;20028;-72
2023/11/05 02:33:10;;;;;;;8.07;1.65;;;;;;;11.69;100.00;96934.91;5264814;28;20024;-72
2023/11/05 02:35:41;;;;;;;12.13;1.90;;;;;;;11.62;100.00;96929.81;5254736;28;20386;-72
2023/11/05 02:38:11;;;;;;;7.20;1.30;;;;;;;11.79;100.00;96936.78;5260543;28;20021;-72
2023/11/05 02:40:42;;;;;;;9.23;1.48;;;;;;;11.78;100.00;96937.88;5263193;28;20042;-72
2023/11/05 02:43:12;;;;;;;10.85;1.60;;;;;;;11.79;100.00;96934.91;5268112;28;20020;-72
2023/11/05 02:45:43;;;;;;;8.23;1.50;;;;;;;11.78;100.00;96929.81;5262557;28;20045;-72
2023/11/05 02:48:15;;;;;;;8.77;1.80;;;;;;;11.73;100.00;96929.81;5257855;28;21549;-72
2023/11/05 02:50:46;;;;;;;9.98;1.52;;;;;;;11.74;100.00;96926.84;5266467;28;20032;-72
2023/11/05 02:53:16;;;;;;;9.27;1.30;;;;;;;11.65;100.00;96923.13;5264417;28;20020;-72
2023/11/05 02:55:47;;;;;;;6.28;1.40;;;;;;;11.71;100.00;96915.88;5254321;28;20028;-72
2023/11/05 02:58:18;;;;;;;8.90;2.00;;;;;;;11.67;100.00;96912.91;5258256;28;20126;-72
2023/11/05 03:00:49;;;;;;;18.25;1.95;;;;;;;11.58;100.00;96915.31;5268097;28;20098;-72
2023/11/05 03:03:19;;;;;;;11.68;1.88;;;;;;;11.71;100.00;96915.88;5258513;28;20024;-72
2023/11/05 03:05:50;;;;;;;6.97;1.60;;;;;;;11.62;100.00;96924.44;5256340;28;20028;-72
2023/11/05 03:08:21;;;;;;;13.25;2.20;;;;;;;11.65;100.00;96926.59;5264163;28;20025;-72
2023/11/05 03:10:52;;;;;;;14.35;2.13;;;;;;;11.65;100.00;96925.81;5254950;28;20040;-72
2023/11/05 03:13:22;;;;;;;10.75;1.40;;;;;;;11.57;100.00;96921.75;5264950;28;20031;-72
2023/11/05 03:15:53;;;;;;;8.90;1.38;;;;;;;11.53;100.00;96922.56;5260726;28;20485;-72
2023/11/05 03:18:24;;;;;;;10.00;1.52;;;;;;;11.53;100.00;96927.94;5260120;28;20035;-72
2023/11/05 03:20:54;;;;;;;11.63;1.63;;;;;;;11.54;100.00;96926.84;5267776;28;20020;-72
2023/11/05 03:23:25;;;;;;;4.60;1.35;;;;;;;11.57;100.00;96921.75;5265214;28;20027;-72
2023/11/05 03:25:56;;;;;;;11.75;1.55;;;;;;;11.60;100.00;96923.91;5258141;28;20104;-72
2023/11/05 03:28:26;;;;;;;6.15;1.23;;;;;;;11.66;100.00;96928.22;5262279;28;20020;-72
2023/11/05 03:30:57;;;;;;;18.30;3.08;;;;;;;11.72;100.00;96931.69;5259327;28;20702;-72
2023/11/05 03:33:27;;;;;;;8.57;1.20;;;;;;;11.65;100.00;96926.59;5259225;28;20031;-72
2023/11/05 03:35:58;;;;;;;7.22;1.70;;;;;;;11.62;100.00;96927.13;5261639;28;20071;-72
2023/11/05 03:38:28;;;;;;;13.90;1.50;;;;;;;11.68;100.00;96933.31;5263731;28;20396;-72
2023/11/05 03:40:59;;;;;;;10.93;1.73;;;;;;;11.68;100.00;96938.66;5259359;28;20035;-72
2023/11/05 03:43:30;;;;;;;13.48;1.48;;;;;;;11.70;100.00;96939.22;5258561;28;20130;-72
2023/11/05 03:46:02;;;;;;;14.38;2.03;;;;;;;11.75;100.00;96938.44;5261352;28;20057;-72
2023/11/05 03:48:33;;;;;;;10.40;1.60;;;;;;;11.72;100.00;96939.75;5260011;28;20024;-72
2023/11/05 03:51:03;;;;;;;8.38;1.60;;;;;;;11.81;100.00;96948.09;5253497;28;20040;-72
2023/11/05 03:53:34;;;;;;;13.15;1.95;;;;;;;11.85;100.00;96943.81;5253523;28;20023;-72
2023/11/05 03:56:05;;;;;;;12.40;1.58;;;;;;;11.82;100.00;96950.53;5256743;28;20024;-72
2023/11/05 03:58:37;;;;;;;9.48;1.42;;;;;;;11.80;100.00;96947.28;5259289;28;20058;-72
2023/11/05 04:01:15;;;;;;;9.98;2.97;;;;;;;11.79;100.00;96944.84;5246121;28;20028;-72
2023/11/05 04:03:46;;;;;;;6.88;1.38;;;;;;;11.76;100.00;96948.88;5267831;28;20052;-72
2023/11/05 04:06:17;;;;;;;13.48;1.42;;;;;;;11.89;100.00;96955.63;5262733;28;20710;-72
2023/11/05 04:08:48;;;;;;;8.38;1.42;;;;;;;11.83;100.00;96954.81;5260289;28;20024;-72
2023/11/05 04:11:19;;;;;;;11.20;1.23;;;;;;;11.92;100.00;96960.47;5253704;28;20371;-72
2023/11/05 04:13:49;;;;;;;8.32;1.40;;;;;;;11.95;100.00;96956.41;5263472;28;20028;-72
2023/11/05 04:16:20;;;;;;;15.25;1.52;;;;;;;11.88;100.00;96956.69;5252840;28;20158;-73
2023/11/05 04:18:51;;;;;;;10.30;1.88;;;;;;;11.91;100.00;96953.47;5266157;28;20439;-73
2023/11/05 04:21:21;;;;;;;10.07;1.52;;;;;;;11.94;100.00;96960.97;5258729;28;20078;-73
2023/11/05 04:23:52;;;;;;;12.63;1.75;;;;;;;11.98;100.00;96959.38;5258888;28;20032;-73
2023/11/05 04:26:23;;;;;;;7.32;1.30;;;;;;;11.88;100.00;96964.75;5255479;28;20074;-73
2023/11/05 04:28:53;;;;;;;6.72;1.40;;;;;;;11.96;100.00;96960.72;5262015;28;20111;-74
2023/11/05 04:31:24;;;;;;;8.50;1.63;;;;;;;11.96;100.00;96966.09;5260027;28;20089;-73
2023/11/05 04:33:55;;;;;;;10.90;2.22;;;;;;;11.91;100.00;96965.03;5270154;28;20036;-74
2023/11/05 04:36:25;;;;;;;12.05;1.67;;;;;;;11.99;100.00;96960.19;5264966;28;20561;-74
2023/11/05 04:38:56;;;;;;;11.95;2.13;;;;;;;11.99;100.00;96960.19;5256751;28;20033;-73
2023/11/05 04:41:26;;;;;;;10.27;1.92;;;;;;;11.98;100.00;96966.63;5262704;28;20016;-73
2023/11/05 04:43:57;;;;;;;7.90;1.55;;;;;;;11.98;100.00;96964.75;5256801;28;20078;-74
2023/11/05 04:46:27;;;;;;;15.43;1.88;;;;;;;11.92;100.00;96969.31;5265626;28;20065;-76
2023/11/05 04:48:58;;;;;;;11.20;1.35;;;;;;;11.99;100.00;96968.22;5268231;28;20130;-73
2023/11/05 04:51:29;;;;;;;6.57;1.27;;;;;;;11.86;100.00;96961.53;5268266;28;20376;-73
2023/11/05 04:53:59;;;;;;;7.43;1.45;;;;;;;11.88;100.00;96968.25;5260652;28;20016;-74
2023/11/05 04:56:30;;;;;;;8.57;1.48;;;;;;;11.70;100.00;96966.06;5258454;28;20023;-73
2023/11/05 04:59:00;;;;;;;7.50;1.35;;;;;;;11.74;100.00;96959.06;5261398;28;20043;-73
2023/11/05 05:01:31;;;;;;;9.05;1.15;;;;;;;11.73;100.00;96970.09;5258325;28;20023;-76
2023/11/05 05:04:02;;;;;;;10.63;1.35;;;;;;;11.66;100.00;96968.47;5262917;28;20392;-75
2023/11/05 05:06:32;;;;;;;12.43;1.73;;;;;;;11.66;100.00;96978.41;5256973;28;20054;-74
2023/11/05 05:09:04;;;;;;;8.15;1.40;;;;;;;11.62;100.00;96975.44;5268591;28;20121;-74
2023/11/05 05:11:34;;;;;;;11.85;1.65;;;;;;;11.58;100.00;96981.63;5265246;28;20020;-74
2023/11/05 05:14:05;;;;;;;11.70;1.88;;;;;;;11.57;100.00;96986.19;5262348;28;20027;-76
2023/11/05 05:16:36;;;;;;;14.07;1.83;;;;;;;11.55;100.00;96977.59;5255501;28;20024;-75
2023/11/05 05:19:06;;;;;;;12.25;1.52;;;;;;;11.59;100.00;96981.34;5261415;28;20382;-74
2023/11/05 05:21:46;;;;;;;13.10;2.03;;;;;;;11.61;100.00;96991.84;5261744;28;20699;-74
2023/11/05 05:24:16;;;;;;;14.98;1.98;;;;;;;11.64;100.00;96992.09;5254693;28;20048;-74
2023/11/05 05:26:47;;;;;;;11.82;1.80;;;;;;;11.66;100.00;97000.69;5263426;28;20047;-74
2023/11/05 05:29:17;;;;;;;12.05;1.85;;;;;;;11.66;100.00;96995.31;5257218;28;20077;-73
2023/11/05 05:31:48;;;;;;;11.45;2.08;;;;;;;11.66;100.00;97005.25;5258873;28;20023;-74
2023/11/05 05:34:19;;;;;;;15.63;1.77;;;;;;;11.69;100.00;97002.03;5273431;28;20070;-74
2023/11/05 05:36:49;;;;;;;8.90;1.70;;;;;;;11.70;100.00;97005.50;5269813;28;20091;-73
2023/11/05 05:39:20;;;;;;;11.77;2.10;;;;;;;11.66;100.00;97003.38;5265234;28;20028;-73
2023/11/05 05:41:50;;;;;;;12.73;1.95;;;;;;;11.66;100.00;96999.88;5255367;28;20020;-73
2023/11/05 05:44:21;;;;;;;13.00;1.52;;;;;;;11.67;100.00;97013.03;5251737;28;20081;-73
2023/11/05 05:46:52;;;;;;;16.63;2.50;;;;;;;11.71;100.00;97021.38;5258158;28;20024;-73
2023/11/05 05:49:22;;;;;;;15.85;2.20;;;;;;;11.73;100.00;97016.53;5252694;28;20028;-73
2023/11/05 05:51:53;;;;;;;12.20;2.10;;;;;;;11.73;100.00;97026.47;5260347;28;20020;-73
2023/11/05 05:54:24;;;;;;;15.13;2.00;;;;;;;11.70;100.00;97027.00;5259949;28;20682;-73
2023/11/05 05:56:54;;;;;;;21.33;2.90;;;;;;;11.79;100.00;97036.94;5259001;28;20063;-73
2023/11/05 05:59:24;;;;;;;16.80;3.10;;;;;;;11.79;100.00;97033.47;5247452;28;20017;-73
2023/11/05 06:01:55;;;;;;;17.50;3.05;;;;;;;11.82;100.00;97036.44;5254140;28;20039;-73
2023/11/05 06:04:26;;;;;;;13.27;2.33;;;;;;;11.78;100.00;97037.22;5253774;28;20020;-73
2023/11/05 06:06:56;;;;;;;14.50;2.30;;;;;;;11.81;100.00;97039.38;5255578;28;20096;-73
2023/11/05 06:09:27;;;;;;;13.98;2.50;;;;;;;11.80;100.00;97040.47;5257823;28;20489;-74
2023/11/05 06:11:57;;;;;;;16.95;3.67;;;;;;;11.80;100.00;97046.63;5256277;28;20103;-73
2023/11/05 06:14:28;;;;;;;14.50;2.70;;;;;;;11.83;100.00;97053.38;5250842;28;20020;-73
2023/11/05 06:16:58;;;;;;;14.65;2.65;;;;;;;11.90;100.00;97052.06;5257206;28;20035;-73
2023/11/05 06:19:29;;;;;;;21.05;3.08;;;;;;;11.88;100.00;97056.06;5251132;28;20084;-73
2023/11/05 06:21:59;;;;;;;18.92;2.42;;;;;;;11.85;100.00;97059.28;5254741;28;20366;-73
2023/11/05 06:24:30;;;;;;;18.48;2.50;;;;;;;11.91;100.00;97060.91;5262948;28;20111;-73
2023/11/05 06:27:00;;;;;;;10.15;2.60;;;;;;;12.01;100.00;97063.59;5258407;28;20034;-73
2023/11/05 06:29:31;;;;;;;8.73;2.47;;;;;;;12.02;100.00;97072.47;5263663;28;20498;-74
2023/11/05 06:32:02;;;;;;;18.40;3.28;;;;;;;11.93;100.00;97075.66;5251161;28;20028;-73
2023/11/05 06:34:32;;;;;;;12.23;2.78;;;;;;;12.01;100.00;97079.72;5258054;28;20032;-73
2023/11/05 06:37:03;;;;;;;18.27;2.90;;;;;;;12.06;100.00;97089.66;5254981;28;20028;-74
2023/11/05 06:39:34;;;;;;;23.27;2.72;;;;;;;12.08;100.00;97095.56;5260367;28;20555;-74
2023/11/05 06:42:04;;;;;;;13.68;2.63;;;;;;;12.01;100.00;97106.59;5259406;28;20023;-73
2023/11/05 06:44:35;;;;;;;19.42;2.78;;;;;;;11.99;100.00;97107.91;5261853;28;20085;-73
2023/11/05 06:47:05;;;;;;;21.38;3.00;;;;;;;12.09;100.00;97110.63;5258946;28;20092;-73
2023/11/05 06:49:36;;;;;;;10.18;2.30;;;;;;;12.07;100.00;97116.25;5260608;28;20032;-73
2023/11/05 06:52:07;;;;;;;19.80;2.65;;;;;;;12.17;100.00;97121.66;5255833;28;20037;-73
2023/11/05 06:54:39;;;;;;;10.38;2.42;;;;;;;12.12;100.00;97128.91;5255579;28;20023;-73
2023/11/05 06:57:10;;;;;;;16.05;2.72;;;;;;;12.13;100.00;97130.50;5261325;28;20039;-74
2023/11/05 06:59:40;;;;;;;12.98;2.97;;;;;;;12.18;100.00;97142.06;5253991;28;20430;-72
2023/11/05 07:02:12;;;;;;;18.65;2.85;;;;;;;12.22;100.00;97144.22;5253826;28;20020;-72
2023/11/05 07:04:43;;;;;;;14.95;2.38;;;;;;;12.30;100.00;97155.25;5256097;28;20024;-72
2023/11/05 07:07:13;;;;;;;12.38;3.03;;;;;;;12.35;100.00;97157.13;5259109;28;20050;-72
2023/11/05 07:09:44;;;;;;;19.08;2.88;;;;;;;12.30;100.00;97160.63;5259086;28;20031;-72
2023/11/05 07:12:15;;;;;;;15.45;2.45;;;;;;;12.36;100.00;97158.75;5258099;28;20059;-73
2023/11/05 07:14:45;;;;;;;13.70;2.60;;;;;;;12.38;100.00;97172.72;5251470;28;20106;-72
2023/11/05 07:17:16;;;;;;;18.85;2.45;;;;;;;12.37;100.00;97171.13;5256240;28;20050;-74
2023/11/05 07:19:46;;;;;;;11.30;2.15;;;;;;;12.41;100.00;97182.97;5253711;28;20035;-73
2023/11/05 07:22:17;;;;;;;16.35;2.38;;;;;;;12.38;100.00;97178.09;5254793;28;20038;-73
2023/11/05 07:24:47;;;;;;;9.63;2.78;;;;;;;12.39;100.00;97185.09;5256858;28;20035;-72
2023/11/05 07:27:19;;;;;;;15.65;2.90;;;;;;;12.42;100.00;97192.63;5259235;28;20493;-73
2023/11/05 07:29:49;;;;;;;15.73;2.78;;;;;;;12.49;100.00;97195.84;5254953;28;20032;-73
2023/11/05 07:32:20;;;;;;;11.02;1.98;;;;;;;12.55;100.00;97202.03;5249806;28;20078;-73
2023/11/05 07:34:51;;;;;;;14.40;2.38;;;;;;;12.58;100.00;97205.00;5255461;28;20433;-72
2023/11/05 07:37:22;;;;;;;11.02;1.98;;;;;;;12.50;100.00;97213.63;5257700;28;20024;-72
2023/11/05 07:39:53;;;;;;;14.30;2.28;;;;;;;12.58;100.00;97210.38;5253392;28;20085;-72
2023/11/05 07:42:23;;;;;;;15.32;2.40;;;;;;;12.63;100.00;97218.47;5259655;28;20017;-72
2023/11/05 07:44:53;;;;;;;15.32;2.58;;;;;;;12.62;100.00;97216.84;5253893;28;20031;-72
2023/11/05 07:47:24;;;;;;;11.55;2.25;;;;;;;12.61;100.00;97233.25;5255214;28;20389;-72
2023/11/05 07:49:54;;;;;;;7.85;2.42;;;;;;;12.69;100.00;97230.81;5252264;28;20024;-72
2023/11/05 07:52:25;;;;;;;14.18;3.20;;;;;;;12.69;100.00;97241.59;5250298;28;20370;-73
2023/11/05 07:54:57;;;;;;;7.43;2.78;;;;;;;12.66;100.00;97233.25;5254204;28;20499;-72
2023/11/05 07:57:28;;;;;;;6.85;2.60;;;;;;;12.68;100.00;97239.97;5253306;28;20390;-72
2023/11/05 07:59:59;;;;;;;12.35;2.60;;;;;;;12.75;100.00;97246.97;5261053;28;20027;-73
2023/11/05 08:02:30;;;;;;;9.93;2.45;;;;;;;12.81;100.00;97251.31;5262252;28;20029;-73
2023/11/05 08:05:00;;;;;;;13.90;2.47;;;;;;;12.78;100.00;97259.91;5259406;28;20497;-72
2023/11/05 08:07:31;;;;;;;14.13;2.20;;;;;;;12.83;100.00;97260.69;5263022;28;20071;-72
2023/11/05 08:10:01;;;;;;;10.65;2.33;;;;;;;12.84;100.00;97272.25;5260488;28;20481;-72
2023/11/05 08:12:33;;;;;;;9.63;1.85;;;;;;;12.80;100.00;97276.56;5253656;28;20032;-73
2023/11/05 08:15:05;;;;;;;12.43;2.25;;;;;;;12.86;100.00;97287.06;5259420;28;20045;-72
2023/11/05 08:17:36;;;;;;;8.43;1.90;;;;;;;13.02;100.00;97298.66;5258810;28;20024;-73
2023/11/05 08:20:11;;;;;;;6.75;1.58;;;;;;;13.04;100.00;97296.50;5265144;28;20473;-72
2023/11/05 08:22:43;;;;;;;8.40;2.35;;;;;;;13.17;100.00;97293.28;5264310;28;20085;-72
2023/11/05 08:25:14;;;;;;;8.70;1.98;;;;;;;13.11;100.00;97312.41;5265528;28;20531;-72
2023/11/05 08:27:44;;;;;;;11.55;2.38;;;;;;;13.06;100.00;97321.28;5263526;28;20031;-72
2023/11/05 08:30:16;;;;;;;13.50;3.00;;;;;;;13.05;100.00;97325.03;5251407;28;20027;-72
2023/11/05 08:32:46;;;;;;;9.65;2.80;;;;;;;12.95;100.00;97320.47;5259248;28;20024;-73
2023/11/05 08:35:18;;;;;;;10.13;3.10;;;;;;;13.08;100.00;97331.75;5262942;28;20016;-72
2023/11/05 08:37:49;;;;;;;7.03;2.67;;;;;;;13.11;100.00;97337.41;5268621;28;20069;-72
2023/11/05 08:40:20;;;;;;;12.38;3.03;;;;;;;13.08;100.00;97348.72;5254940;28;20493;-72
2023/11/05 08:42:51;;;;;;;8.82;2.30;;;;;;;13.18;100.00;97350.59;5258865;28;20115;-73
2023/11/05 08:45:21;;;;;;;12.25;2.75;;;;;;;13.06;100.00;97369.72;5255620;28;20021;-73
2023/11/05 08:47:52;;;;;;;12.52;3.85;;;;;;;13.27;100.00;97375.16;5265457;28;20114;-72
2023/11/05 08:50:25;;;;;;;7.30;3.40;;;;;;;13.23;100.00;97387.50;5259326;28;20115;-72
2023/11/05 08:52:56;;;;;;;8.60;2.10;;;;;;;13.26;100.00;97397.75;5259688;28;20103;-72
2023/11/05 08:55:28;;;;;;;5.45;2.22;;;;;;;13.18;100.00;97399.03;5260231;28;20198;-72
2023/11/05 08:57:59;;;;;;;9.13;2.67;;;;;;;13.23;100.00;97409.03;5265827;28;20020;-72
2023/11/05 09:00:32;;;;;;;8.45;2.50;;;;;;;13.21;100.00;97418.19;5259896;28;20103;-72
2023/11/05 09:03:04;;;;;;;8.93;2.55;;;;;;;13.16;100.00;97420.84;5257727;28;20023;-72
2023/11/05 09:05:34;;;;;;;9.35;2.38;;;;;;;13.07;100.00;97438.59;5256979;28;20028;-72
2023/11/05 09:08:05;;;;;;;18.23;14.07;;;;;;;13.11;100.00;97452.34;5261773;28;20481;-73
2023/11/05 09:10:35;;;;;;;8.35;2.35;;;;;;;13.14;100.00;97449.91;5259676;28;20034;-72
2023/11/05 09:13:06;;;;;;;8.90;2.22;;;;;;;13.06;100.00;97458.50;5260069;28;20021;-72
2023/11/05 09:15:36;;;;;;;8.90;4.20;;;;;;;13.20;100.00;97469.56;5260315;28;20076;-72
2023/11/05 09:18:07;;;;;;;6.80;2.88;;;;;;;13.08;100.00;97477.88;5261594;28;20023;-73
2023/11/05 09:20:37;;;;;;;7.10;1.83;;;;;;;13.22;100.00;97489.00;5253843;28;20062;-72
2023/11/05 09:23:08;;;;;;;9.05;3.30;;;;;;;13.24;100.00;97507.56;5256782;28;20020;-73
2023/11/05 09:25:38;;;;;;;9.95;2.63;;;;;;;13.15;100.00;97512.59;5258744;28;20474;-73
2023/11/05 09:28:09;;;;;;;10.02;5.07;;;;;;;13.06;100.00;97516.91;5258078;28;20020;-73
2023/11/05 09:30:42;;;;;;;8.63;4.25;;;;;;;12.80;100.00;97518.63;5256361;28;20031;-73
2023/11/05 09:33:14;;;;;;;8.65;3.72;;;;;;;12.76;100.00;97531.00;5257780;28;20058;-73
2023/11/05 09:35:44;;;;;;;9.13;4.20;;;;;;;12.70;100.00;97539.06;5251810;28;20679;-73
2023/11/05 09:38:15;;;;;;;10.13;3.53;;;;;;;12.67;100.00;97561.06;5250483;28;20028;-73
2023/11/05 09:40:47;;;;;;;11.10;4.38;;;;;;;12.72;100.00;97564.88;5256234;28;20574;-73
2023/11/05 09:43:18;;;;;;;12.13;5.03;;;;;;;12.68;100.00;97580.72;5253659;28;20032;-73
2023/11/05 09:45:49;;;;;;;13.13;5.35;;;;;;;12.75;100.00;97591.25;5253111;28;20039;-72
2023/11/05 09:48:20;;;;;;;17.27;4.75;;;;;;;12.85;100.00;97592.13;5251409;28;20107;-73
2023/11/05 09:50:50;;;;;;;13.73;5.35;;;;;;;12.90;100.00;97604.78;5262062;28;20110;-73
2023/11/05 09:53:26;;;;;;;10.93;5.00;;;;;;;12.86;100.00;97617.97;5258211;28;20113;-73
2023/11/05 09:55:57;;;;;;;11.95;4.65;;;;;;;12.90;100.00;97629.00;5264937;28;20027;-73
2023/11/05 09:58:29;;;;;;;21.15;7.07;;;;;;;12.93;100.00;97636.56;5256950;28;20059;-73
2023/11/05 10:01:00;;;;;;;25.92;6.13;;;;;;;12.95;100.00;97645.16;5257663;28;20043;-74
2023/11/05 10:03:31;;;;;;;18.92;6.53;;;;;;;12.92;100.00;97648.41;5256603;28;20538;-73
2023/11/05 10:06:03;;;;;;;22.63;6.70;;;;;;;12.91;100.00;97658.34;5258935;28;20166;-74
2023/11/05 10:08:34;;;;;;;16.73;6.75;;;;;;;12.86;100.00;97662.88;5250389;28;20017;-73
2023/11/05 10:11:05;;;;;;;22.02;6.32;;;;;;;12.88;100.00;97680.38;5249519;28;20036;-72
2023/11/05 10:13:36;;;;;;;19.67;5.90;;;;;;;12.85;100.00;97688.16;5258991;28;20020;-72
2023/11/05 10:16:06;;;;;;;44.50;17.33;;;;;;;12.86;100.00;97695.97;5254887;28;20032;-72
2023/11/05 10:18:38;;;;;;;22.45;10.18;;;;;;;12.88;100.00;97709.16;5257057;28;20057;-73
2023/11/05 10:21:10;;;;;;;30.83;12.57;;;;;;;12.89;100.00;97719.66;5251309;28;20031;-73
2023/11/05 10:23:59;;;;;;;29.50;15.27;;;;;;;12.88;100.00;97719.94;5250611;28;20021;-73
2023/11/05 10:26:31;;;;;;;18.25;8.27;;;;;;;12.79;100.00;97724.16;5256677;28;20029;-73
2023/11/05 10:29:02;;;;;;;27.92;11.10;;;;;;;12.77;100.00;97729.78;5256806;28;20715;-73
2023/11/05 10:31:33;;;;;;;27.88;10.07;;;;;;;12.81;100.00;97749.75;5254061;28;20020;-73
2023/11/05 10:34:07;;;;;;;23.15;10.45;;;;;;;12.87;100.00;97751.41;5248103;28;20031;-72
2023/11/05 10:36:38;;;;;;;24.77;9.07;;;;;;;12.90;100.00;97758.13;5250170;28;20021;-73
2023/11/05 10:39:10;;;;;;;24.42;10.32;;;;;;;13.02;100.00;97766.88;5254164;28;20027;-72
2023/11/05 10:41:42;;;;;;;27.25;11.38;;;;;;;13.04;100.00;97772.78;5256807;28;20035;-72
2023/11/05 10:44:15;;;;;;;35.33;12.38;;;;;;;13.10;100.00;97789.78;5251928;28;20164;-73
2023/11/05 10:46:47;;;;;;;32.42;13.75;;;;;;;13.08;100.00;97792.75;5249842;28;20032;-72
2023/11/05 10:49:17;;;;;;;26.63;11.15;;;;;;;13.05;100.00;97797.81;5255072;28;20020;-73
2023/11/05 10:51:48;;;;;;;24.15;10.32;;;;;;;13.15;100.00;97814.88;5253600;28;20574;-73
2023/11/05 10:54:19;;;;;;;29.65;10.85;;;;;;;13.15;100.00;97814.88;5247489;28;20058;-73
2023/11/05 10:56:51;;;;;;;32.60;10.82;;;;;;;13.25;100.00;97837.59;5254842;28;20035;-73
2023/11/05 10:59:37;;;;;;;21.75;8.25;;;;;;;13.16;100.00;97827.28;5247130;28;20111;-73
2023/11/05 11:02:13;;;;;;;25.88;11.30;;;;;;;13.07;100.00;97834.19;5255541;28;20034;-74
2023/11/05 11:04:43;;;;;;;37.05;10.85;;;;;;;13.11;100.00;97856.03;5248550;28;20520;-73
2023/11/05 11:07:14;;;;;;;26.83;10.10;;;;;;;13.06;100.00;97845.22;5257455;28;20128;-73
2023/11/05 11:09:46;;;;;;;28.05;11.52;;;;;;;13.08;100.00;97857.34;5256490;28;20085;-73
2023/11/05 11:12:32;;;;;;;24.92;9.55;;;;;;;13.13;100.00;97870.84;5246950;28;20025;-75
2023/11/05 11:15:06;;;;;;;36.47;16.63;;;;;;;13.14;100.00;97874.34;5254203;28;20752;-74
2023/11/05 11:17:42;;;;;;;22.70;9.63;;;;;;;13.18;100.00;97884.34;5252217;28;20028;-74
2023/11/05 11:20:16;;;;;;;27.50;12.80;;;;;;;13.24;100.00;97893.31;5250875;28;20059;-73
2023/11/05 11:22:46;;;;;;;27.98;8.95;;;;;;;13.36;100.00;97902.06;5250185;28;20020;-73
2023/11/05 11:25:17;;;;;;;27.73;9.07;;;;;;;13.36;100.00;97902.06;5252721;28;20035;-73
2023/11/05 11:27:49;;;;;;;25.40;12.02;;;;;;;13.42;100.00;97902.91;5258129;28;20119;-73
2023/11/05 11:30:19;;;;;;;22.15;10.50;;;;;;;13.58;100.00;97918.13;5253198;28;20024;-76
2023/11/05 11:32:50;;;;;;;40.70;15.80;;;;;;;13.55;100.00;97915.13;5251230;28;20618;-73
2023/11/05 11:35:21;;;;;;;26.33;9.07;;;;;;;13.62;100.00;97923.81;5255248;28;20074;-72
2023/11/05 11:37:51;;;;;;;71.50;35.10;;;;;;;13.60;100.00;97928.63;5252952;28;20032;-72